Head of Island, Louisiana
Current Conditions -  °F | °C
As of 4:35 AM on Sunday 21 Dec 2014 (Local Time) from K1L0 Reporting Station
Overcast Overcast  
Wind Chill: 53°   Ceiling: 1100
Heat Index: 53°   Visibility: 10mi
Dew Point: 48°   Wind: 7mph
Humidity: 85%   Direction: 30°NNE
Pressure: 30.11"   Gusts: NA
Location:  30.3666°N, 90.584°W
Report Text: K1L0 211035Z AUTO 03006KT 10SM OVC011 12/09 A3011 RMK AO2 T01150090
Loading
Personal Weather Stations






























Interactive Weather Map New forecast layout! Learn more

10-Day Weather Forecast

Advertisements
Track Severe Weather on mobile